Time;durP1;ratioP1;P1;durP2;ratioP2;P2;SDS_P1;SDS_P2;PMS_P1;PMS_P2;Temp;Humidity;BMP_temperature;BMP_pressure;BME280_temperature;BME280_humidity;BME280_pressure;Samples;Min_cycle;Max_cycle;Signal;HPM_P1;HPM_P2
2024/02/16 00:01:33;;;;;;;;;;;;;;;;;;5026149;28;19905;-52
2024/02/16 00:03:59;;;;;;;;;;;;;;;;;;5026141;28;19913;-56
2024/02/16 00:06:26;;;;;;;;;;;;;;;;;;5026009;28;19905;-49
2024/02/16 00:08:52;;;;;;;;;;;;;;;;;;5026363;28;19913;-52
2024/02/16 00:11:18;;;;;;;;;;;;;;;;;;5025895;28;19912;-55
2024/02/16 00:13:44;;;;;;;;;;;;;;;;;;5026108;28;20047;-52
2024/02/16 00:16:10;;;;;;;;;;;;;;;;;;5025998;28;19972;-50
2024/02/16 00:18:37;;;;;;;;;;;;;;;;;;5025950;28;19912;-53
2024/02/16 00:21:03;;;;;;;;;;;;;;;;;;5025733;28;19905;-56
2024/02/16 00:23:29;;;;;;;;;;;;;;;;;;5025892;28;19912;-54
2024/02/16 00:25:55;;;;;;;;;;;;;;;;;;5025584;28;19989;-52
2024/02/16 00:28:22;;;;;;;;;;;;;;;;;;5025921;28;19976;-54
2024/02/16 00:30:49;;;;;;;;;;;;;;;;;;5025019;28;19913;-51
2024/02/16 00:33:17;;;;;;;;;;;;;;;;;;5026039;28;19912;-55
2024/02/16 00:35:43;;;;;;;;;;;;;;;;;;5025463;28;20109;-53
2024/02/16 00:38:09;;;;;;;;;;;;;;;;;;5025570;28;19980;-54
2024/02/16 00:40:35;;;;;;;;;;;;;;;;;;5025955;28;19967;-53
2024/02/16 00:43:02;;;;;;;;;;;;;;;;;;5025745;28;19912;-57
2024/02/16 00:45:28;;;;;;;;;;;;;;;;;;5025850;28;19910;-56
2024/02/16 00:47:54;;;;;;;;;;;;;;;;;;5025195;28;20200;-57
2024/02/16 00:50:20;;;;;;;;;;;;;;;;;;5025324;28;20241;-53
2024/02/16 00:52:47;;;;;;;;;;;;;;;;;;5025122;28;19905;-56
2024/02/16 00:55:13;;;;;;;;;;;;;;;;;;5024934;28;19916;-54
2024/02/16 00:57:39;;;;;;;;;;;;;;;;;;5025145;28;19972;-53
2024/02/16 01:00:05;;;;;;;;;;;;;;;;;;5025034;28;19912;-55
2024/02/16 01:02:33;;;;;;;;;;;;;;;;;;5025429;28;19908;-53
2024/02/16 01:05:02;;;;;;;;;;;;;;;;;;5025190;28;20160;-54
2024/02/16 01:07:28;;;;;;;;;;;;;;;;;;5024608;28;19902;-55
2024/02/16 01:09:56;;;;;;;;;;;;;;;;;;5025093;28;19906;-54
2024/02/16 01:12:22;;;;;;;;;;;;;;;;;;5024894;28;19901;-56
2024/02/16 01:14:48;;;;;;;;;;;;;;;;;;5025301;28;19983;-56
2024/02/16 01:17:15;;;;;;;;;;;;;;;;;;5025075;28;20057;-54
2024/02/16 01:19:41;;;;;;;;;;;;;;;;;;5024949;28;19912;-54
2024/02/16 01:22:07;;;;;;;;;;;;;;;;;;5024541;28;19901;-54
2024/02/16 01:24:33;;;;;;;;;;;;;;;;;;5025081;28;19931;-54
2024/02/16 01:27:00;;;;;;;;;;;;;;;;;;5024983;28;19912;-56
2024/02/16 01:29:26;;;;;;;;;;;;;;;;;;5023305;28;20276;-49
2024/02/16 01:31:53;;;;;;;;;;;;;;;;;;5019820;28;19971;-45
2024/02/16 01:34:19;;;;;;;;;;;;;;;;;;5014042;28;20016;-47
2024/02/16 01:36:45;;;;;;;;;;;;;;;;;;5011315;28;19910;-43
2024/02/16 01:39:11;;;;;;;;;;;;;;;;;;5016226;28;19906;-46
2024/02/16 01:41:37;;;;;;;;;;;;;;;;;;5013949;28;19916;-49
2024/02/16 01:44:04;;;;;;;;;;;;;;;;;;5018543;28;20094;-49
2024/02/16 01:46:30;;;;;;;;;;;;;;;;;;5020346;28;19917;-50
2024/02/16 01:48:56;;;;;;;;;;;;;;;;;;5021492;28;19977;-56
2024/02/16 01:51:22;;;;;;;;;;;;;;;;;;5017893;28;20208;-55
2024/02/16 01:53:48;;;;;;;;;;;;;;;;;;5016821;28;19909;-52
2024/02/16 01:56:14;;;;;;;;;;;;;;;;;;5019688;28;19925;-51
2024/02/16 01:58:41;;;;;;;;;;;;;;;;;;5028268;28;19912;-52
2024/02/16 02:01:07;;;;;;;;;;;;;;;;;;5026343;28;19910;-55
2024/02/16 02:03:34;;;;;;;;;;;;;;;;;;5023667;28;19910;-49
2024/02/16 02:06:01;;;;;;;;;;;;;;;;;;5026387;28;19909;-51
2024/02/16 02:08:27;;;;;;;;;;;;;;;;;;5020609;28;19912;-50
2024/02/16 02:10:53;;;;;;;;;;;;;;;;;;5020744;28;19909;-52
2024/02/16 02:13:21;;;;;;;;;;;;;;;;;;5018574;28;19905;-55
2024/02/16 02:15:47;;;;;;;;;;;;;;;;;;5018715;28;19921;-50
2024/02/16 02:18:14;;;;;;;;;;;;;;;;;;5019412;28;20237;-46
2024/02/16 02:20:40;;;;;;;;;;;;;;;;;;5013648;28;19913;-51
2024/02/16 02:23:06;;;;;;;;;;;;;;;;;;5018073;28;19905;-53
2024/02/16 02:25:33;;;;;;;;;;;;;;;;;;5017047;28;19913;-44
2024/02/16 02:27:59;;;;;;;;;;;;;;;;;;5014269;28;19905;-48
2024/02/16 02:30:25;;;;;;;;;;;;;;;;;;5021806;28;20212;-51
2024/02/16 02:32:52;;;;;;;;;;;;;;;;;;5014660;28;19905;-54
2024/02/16 02:35:18;;;;;;;;;;;;;;;;;;5017475;28;19914;-46
2024/02/16 02:37:44;;;;;;;;;;;;;;;;;;5018364;28;19905;-44
2024/02/16 02:40:10;;;;;;;;;;;;;;;;;;5021160;28;19918;-51
2024/02/16 02:42:37;;;;;;;;;;;;;;;;;;5016740;28;19906;-47
2024/02/16 02:45:03;;;;;;;;;;;;;;;;;;5017182;28;19949;-45
2024/02/16 02:47:29;;;;;;;;;;;;;;;;;;5014923;28;19909;-49
2024/02/16 02:49:55;;;;;;;;;;;;;;;;;;5016532;28;19921;-52
2024/02/16 02:52:21;;;;;;;;;;;;;;;;;;5015222;28;19901;-44
2024/02/16 02:54:48;;;;;;;;;;;;;;;;;;5019142;28;20105;-48
2024/02/16 02:57:14;;;;;;;;;;;;;;;;;;5015629;28;19902;-48
2024/02/16 02:59:40;;;;;;;;;;;;;;;;;;5015994;28;20198;-46
2024/02/16 03:02:06;;;;;;;;;;;;;;;;;;5016980;28;19913;-46
2024/02/16 03:04:33;;;;;;;;;;;;;;;;;;5018186;28;19914;-45
2024/02/16 03:06:59;;;;;;;;;;;;;;;;;;5020901;28;20150;-46
2024/02/16 03:09:26;;;;;;;;;;;;;;;;;;5022519;28;19905;-48
2024/02/16 03:11:52;;;;;;;;;;;;;;;;;;5018101;28;19944;-46
2024/02/16 03:14:19;;;;;;;;;;;;;;;;;;5008422;28;19910;-49
2024/02/16 03:16:45;;;;;;;;;;;;;;;;;;5017711;28;19910;-50
2024/02/16 03:19:11;;;;;;;;;;;;;;;;;;5022164;28;19905;-54
2024/02/16 03:21:37;;;;;;;;;;;;;;;;;;5018481;28;20207;-51
2024/02/16 03:24:03;;;;;;;;;;;;;;;;;;5016498;28;19905;-48
2024/02/16 03:26:30;;;;;;;;;;;;;;;;;;5018606;28;20217;-51
2024/02/16 03:28:56;;;;;;;;;;;;;;;;;;5022914;28;19912;-45
2024/02/16 03:31:22;;;;;;;;;;;;;;;;;;5020516;28;19916;-50
2024/02/16 03:33:48;;;;;;;;;;;;;;;;;;5020475;28;19928;-51
2024/02/16 03:36:14;;;;;;;;;;;;;;;;;;5014403;28;19917;-46
2024/02/16 03:38:41;;;;;;;;;;;;;;;;;;5012877;28;19906;-49
2024/02/16 03:41:07;;;;;;;;;;;;;;;;;;5018089;28;20097;-52
2024/02/16 03:43:33;;;;;;;;;;;;;;;;;;5023378;28;19952;-53
2024/02/16 03:45:59;;;;;;;;;;;;;;;;;;5017742;28;19909;-48
2024/02/16 03:48:25;;;;;;;;;;;;;;;;;;5022890;28;20197;-52
2024/02/16 03:50:52;;;;;;;;;;;;;;;;;;5026169;28;19912;-49
2024/02/16 03:53:18;;;;;;;;;;;;;;;;;;5022962;28;19905;-51
2024/02/16 03:55:44;;;;;;;;;;;;;;;;;;5024766;28;19913;-52
2024/02/16 03:58:10;;;;;;;;;;;;;;;;;;5026265;28;19920;-52
2024/02/16 04:00:38;;;;;;;;;;;;;;;;;;5025847;28;19905;-50
2024/02/16 04:03:04;;;;;;;;;;;;;;;;;;5025886;28;20186;-52
2024/02/16 04:05:33;;;;;;;;;;;;;;;;;;5024729;28;20198;-49
2024/02/16 04:08:01;;;;;;;;;;;;;;;;;;5025832;28;19905;-51
2024/02/16 04:10:30;;;;;;;;;;;;;;;;;;5024057;28;19977;-51
2024/02/16 04:12:57;;;;;;;;;;;;;;;;;;5024074;28;19913;-53
2024/02/16 04:15:23;;;;;;;;;;;;;;;;;;5023969;28;19910;-49
2024/02/16 04:17:49;;;;;;;;;;;;;;;;;;5023999;28;19945;-50
2024/02/16 04:20:16;;;;;;;;;;;;;;;;;;5023846;28;19905;-50
2024/02/16 04:22:42;;;;;;;;;;;;;;;;;;5023966;28;19976;-53
2024/02/16 04:25:08;;;;;;;;;;;;;;;;;;5024018;28;19905;-52
2024/02/16 04:27:35;;;;;;;;;;;;;;;;;;5024016;28;20177;-53
2024/02/16 04:30:01;;;;;;;;;;;;;;;;;;5025651;28;19989;-53
2024/02/16 04:32:27;;;;;;;;;;;;;;;;;;5024918;28;19952;-53
2024/02/16 04:34:55;;;;;;;;;;;;;;;;;;5025364;28;19984;-58
2024/02/16 04:37:22;;;;;;;;;;;;;;;;;;5024894;28;20190;-57
2024/02/16 04:39:48;;;;;;;;;;;;;;;;;;5024615;28;19941;-57
2024/02/16 04:42:14;;;;;;;;;;;;;;;;;;5025000;28;19968;-58
2024/02/16 04:44:41;;;;;;;;;;;;;;;;;;5025090;28;20134;-50
2024/02/16 04:47:07;;;;;;;;;;;;;;;;;;5024980;28;19902;-54
2024/02/16 04:49:33;;;;;;;;;;;;;;;;;;5025357;28;19912;-47
2024/02/16 04:51:59;;;;;;;;;;;;;;;;;;5025135;28;20205;-46
2024/02/16 04:54:25;;;;;;;;;;;;;;;;;;5025348;28;19909;-51
2024/02/16 04:56:51;;;;;;;;;;;;;;;;;;5024896;28;19906;-51
2024/02/16 04:59:17;;;;;;;;;;;;;;;;;;5025380;28;19963;-50
2024/02/16 05:01:46;;;;;;;;;;;;;;;;;;5024716;28;19996;-46
2024/02/16 05:04:17;;;;;;;;;;;;;;;;;;5024720;28;20168;-52
2024/02/16 05:06:43;;;;;;;;;;;;;;;;;;5024971;28;19937;-50
2024/02/16 05:09:09;;;;;;;;;;;;;;;;;;5025122;28;19906;-54
2024/02/16 05:11:35;;;;;;;;;;;;;;;;;;5024491;28;19909;-49
2024/02/16 05:14:01;;;;;;;;;;;;;;;;;;5025033;28;19928;-51
2024/02/16 05:16:27;;;;;;;;;;;;;;;;;;5024657;28;19905;-46
2024/02/16 05:18:54;;;;;;;;;;;;;;;;;;5024440;28;20133;-47
2024/02/16 05:21:20;;;;;;;;;;;;;;;;;;5024820;28;19920;-45
2024/02/16 05:23:46;;;;;;;;;;;;;;;;;;5025126;28;19942;-48
2024/02/16 05:26:12;;;;;;;;;;;;;;;;;;5024192;28;19910;-48
2024/02/16 05:28:38;;;;;;;;;;;;;;;;;;5024542;28;19905;-45
2024/02/16 05:31:05;;;;;;;;;;;;;;;;;;5024361;28;19905;-49
2024/02/16 05:33:31;;;;;;;;;;;;;;;;;;5024829;28;19905;-48
2024/02/16 05:35:58;;;;;;;;;;;;;;;;;;5024195;28;19972;-44
2024/02/16 05:38:40;;;;;;;;;;;;;;;;;;5024752;28;20163;-51
2024/02/16 05:41:06;;;;;;;;;;;;;;;;;;5024186;28;20244;-50
2024/02/16 05:43:33;;;;;;;;;;;;;;;;;;5024588;28;19906;-54
2024/02/16 05:45:59;;;;;;;;;;;;;;;;;;5024570;28;19937;-51
2024/02/16 05:48:30;;;;;;;;;;;;;;;;;;5024377;28;19948;-46
2024/02/16 05:50:56;;;;;;;;;;;;;;;;;;5024189;28;20223;-47
2024/02/16 05:53:22;;;;;;;;;;;;;;;;;;5024634;28;19976;-44
2024/02/16 05:55:49;;;;;;;;;;;;;;;;;;5023995;28;19909;-47
2024/02/16 05:58:15;;;;;;;;;;;;;;;;;;5024304;28;19976;-46
2024/02/16 06:00:42;;;;;;;;;;;;;;;;;;5024223;28;20241;-46
2024/02/16 06:03:08;;;;;;;;;;;;;;;;;;5024014;28;19936;-49
2024/02/16 06:05:34;;;;;;;;;;;;;;;;;;5023960;28;19992;-53
2024/02/16 06:08:01;;;;;;;;;;;;;;;;;;5024454;28;20204;-55
2024/02/16 06:10:27;;;;;;;;;;;;;;;;;;5023876;28;19906;-52
2024/02/16 06:12:53;;;;;;;;;;;;;;;;;;5024427;28;20216;-55
2024/02/16 06:15:19;;;;;;;;;;;;;;;;;;5023865;28;19909;-47
2024/02/16 06:17:45;;;;;;;;;;;;;;;;;;5024255;28;19964;-44
2024/02/16 06:20:13;;;;;;;;;;;;;;;;;;5023912;28;20098;-45
2024/02/16 06:22:39;;;;;;;;;;;;;;;;;;5023906;28;19912;-50
2024/02/16 06:25:05;;;;;;;;;;;;;;;;;;5024229;28;20120;-46
2024/02/16 06:27:32;;;;;;;;;;;;;;;;;;5024378;28;19901;-45
2024/02/16 06:29:58;;;;;;;;;;;;;;;;;;5027596;28;19941;-48
2024/02/16 06:32:25;;;;;;;;;;;;;;;;;;5027585;28;19901;-48
2024/02/16 06:34:51;;;;;;;;;;;;;;;;;;5027385;28;19909;-48
2024/02/16 06:37:17;;;;;;;;;;;;;;;;;;5027636;28;19996;-44
2024/02/16 06:39:43;;;;;;;;;;;;;;;;;;5027451;28;19973;-47
2024/02/16 06:42:12;;;;;;;;;;;;;;;;;;5027191;28;19902;-50
2024/02/16 06:44:38;;;;;;;;;;;;;;;;;;5027699;28;19905;-58
2024/02/16 06:47:04;;;;;;;;;;;;;;;;;;5027310;28;20155;-55
2024/02/16 06:49:31;;;;;;;;;;;;;;;;;;5027925;28;19968;-54
2024/02/16 06:51:57;;;;;;;;;;;;;;;;;;5027110;28;19976;-54
2024/02/16 06:54:26;;;;;;;;;;;;;;;;;;5027657;28;19909;-55
2024/02/16 06:56:53;;;;;;;;;;;;;;;;;;5026961;28;19913;-45
2024/02/16 06:59:19;;;;;;;;;;;;;;;;;;5027477;28;19905;-48
2024/02/16 07:01:45;;;;;;;;;;;;;;;;;;5026987;28;20113;-46
2024/02/16 07:04:11;;;;;;;;;;;;;;;;;;5027143;28;19920;-48
2024/02/16 07:06:38;;;;;;;;;;;;;;;;;;5027120;28;19909;-48
2024/02/16 07:09:04;;;;;;;;;;;;;;;;;;5027307;28;19912;-47
2024/02/16 07:11:31;;;;;;;;;;;;;;;;;;5026674;28;19905;-55
2024/02/16 07:13:59;;;;;;;;;;;;;;;;;;5027078;28;20043;-56
2024/02/16 07:16:25;;;;;;;;;;;;;;;;;;5026688;28;19906;-52
2024/02/16 07:18:51;;;;;;;;;;;;;;;;;;5026989;28;19905;-49
2024/02/16 07:21:20;;;;;;;;;;;;;;;;;;5026583;28;19913;-45
2024/02/16 07:23:46;;;;;;;;;;;;;;;;;;5026925;28;19905;-49
2024/02/16 07:26:14;;;;;;;;;;;;;;;;;;5025834;28;19925;-47
2024/02/16 07:28:40;;;;;;;;;;;;;;;;;;5026820;28;19979;-51
2024/02/16 07:31:06;;;;;;;;;;;;;;;;;;5026514;28;19952;-46
2024/02/16 07:33:32;;;;;;;;;;;;;;;;;;5026748;28;19905;-52
2024/02/16 07:35:58;;;;;;;;;;;;;;;;;;5026377;28;19963;-45
2024/02/16 07:38:25;;;;;;;;;;;;;;;;;;5026759;28;19905;-52
2024/02/16 07:40:51;;;;;;;;;;;;;;;;;;5026224;28;19968;-48
2024/02/16 07:43:18;;;;;;;;;;;;;;;;;;5026360;28;19912;-45
2024/02/16 07:45:44;;;;;;;;;;;;;;;;;;5026105;28;19960;-48
2024/02/16 07:48:10;;;;;;;;;;;;;;;;;;5026217;28;19911;-46
2024/02/16 07:50:36;;;;;;;;;;;;;;;;;;5026202;28;19912;-52
2024/02/16 07:53:03;;;;;;;;;;;;;;;;;;5026212;28;20069;-54
2024/02/16 07:55:29;;;;;;;;;;;;;;;;;;5025863;28;19916;-45
2024/02/16 07:57:55;;;;;;;;;;;;;;;;;;5026019;28;20145;-43
2024/02/16 08:00:21;;;;;;;;;;;;;;;;;;5026214;28;20182;-45
2024/02/16 08:02:48;;;;;;;;;;;;;;;;;;5026027;28;20008;-50
2024/02/16 08:05:14;;;;;;;;;;;;;;;;;;5025622;28;19924;-45
2024/02/16 08:07:43;;;;;;;;;;;;;;;;;;5025832;28;19909;-49
2024/02/16 08:10:09;;;;;;;;;;;;;;;;;;5025856;28;19943;-43
2024/02/16 08:12:35;;;;;;;;;;;;;;;;;;5025685;28;19905;-50
2024/02/16 08:15:01;;;;;;;;;;;;;;;;;;5025649;28;20193;-44
2024/02/16 08:17:28;;;;;;;;;;;;;;;;;;5025719;28;19940;-53
2024/02/16 08:19:54;;;;;;;;;;;;;;;;;;5026082;28;19912;-52
2024/02/16 08:22:20;;;;;;;;;;;;;;;;;;5026178;28;20136;-53
2024/02/16 08:24:46;;;;;;;;;;;;;;;;;;5026131;28;19906;-53
2024/02/16 08:27:15;;;;;;;;;;;;;;;;;;5025445;28;19909;-55
2024/02/16 08:29:41;;;;;;;;;;;;;;;;;;5025483;28;19909;-48
2024/02/16 08:32:08;;;;;;;;;;;;;;;;;;5025310;28;19947;-51
2024/02/16 08:34:36;;;;;;;;;;;;;;;;;;5025171;28;19909;-56
2024/02/16 08:37:03;;;;;;;;;;;;;;;;;;5025293;28;19905;-58
2024/02/16 08:39:29;;;;;;;;;;;;;;;;;;5025740;28;19944;-53
2024/02/16 08:41:55;;;;;;;;;;;;;;;;;;5025166;28;20078;-53
2024/02/16 08:44:22;;;;;;;;;;;;;;;;;;5025722;28;19912;-48
2024/02/16 08:46:49;;;;;;;;;;;;;;;;;;5025099;28;20055;-47
2024/02/16 08:49:16;;;;;;;;;;;;;;;;;;5025512;28;19905;-51
2024/02/16 08:51:42;;;;;;;;;;;;;;;;;;5024475;28;20117;-48
2024/02/16 08:54:08;;;;;;;;;;;;;;;;;;5025402;28;19905;-43
2024/02/16 08:56:35;;;;;;;;;;;;;;;;;;5024800;28;19933;-46
2024/02/16 08:59:01;;;;;;;;;;;;;;;;;;5025279;28;19905;-48
2024/02/16 09:01:27;;;;;;;;;;;;;;;;;;5025004;28;19955;-45
2024/02/16 09:03:54;;;;;;;;;;;;;;;;;;5024844;28;19914;-47
2024/02/16 09:06:20;;;;;;;;;;;;;;;;;;5024570;28;19905;-45
2024/02/16 09:08:46;;;;;;;;;;;;;;;;;;5025205;28;19976;-46
2024/02/16 09:11:14;;;;;;;;;;;;;;;;;;5024785;28;19905;-47
2024/02/16 09:13:40;;;;;;;;;;;;;;;;;;5024905;28;19929;-51
2024/02/16 09:16:07;;;;;;;;;;;;;;;;;;5024589;28;19909;-46
2024/02/16 09:18:33;;;;;;;;;;;;;;;;;;5024509;28;19909;-49
2024/02/16 09:20:59;;;;;;;;;;;;;;;;;;5024458;28;20160;-43
2024/02/16 09:23:25;;;;;;;;;;;;;;;;;;5024856;28;19913;-48
2024/02/16 09:25:52;;;;;;;;;;;;;;;;;;5024794;28;20261;-42
2024/02/16 09:28:18;;;;;;;;;;;;;;;;;;5025012;28;20089;-43
2024/02/16 09:30:45;;;;;;;;;;;;;;;;;;5024425;28;19905;-42
2024/02/16 09:33:11;;;;;;;;;;;;;;;;;;5024335;28;20178;-51
2024/02/16 09:35:37;;;;;;;;;;;;;;;;;;5024361;28;19951;-55
2024/02/16 09:38:03;;;;;;;;;;;;;;;;;;5024430;28;19928;-53
2024/02/16 09:40:29;;;;;;;;;;;;;;;;;;5024476;28;19937;-51
2024/02/16 09:42:56;;;;;;;;;;;;;;;;;;5024355;28;19905;-54
2024/02/16 09:45:24;;;;;;;;;;;;;;;;;;5024346;28;20193;-55
2024/02/16 09:47:50;;;;;;;;;;;;;;;;;;5024549;28;19905;-52
2024/02/16 09:50:16;;;;;;;;;;;;;;;;;;5024327;28;19913;-49
2024/02/16 09:52:42;;;;;;;;;;;;;;;;;;5024186;28;19905;-45
2024/02/16 09:55:09;;;;;;;;;;;;;;;;;;5024179;28;20141;-47
2024/02/16 09:57:35;;;;;;;;;;;;;;;;;;5024313;28;19972;-45
2024/02/16 10:00:01;;;;;;;;;;;;;;;;;;5024206;28;20094;-47
2024/02/16 10:02:27;;;;;;;;;;;;;;;;;;5024948;28;19905;-43
2024/02/16 10:04:54;;;;;;;;;;;;;;;;;;5027670;28;19917;-44
2024/02/16 10:07:20;;;;;;;;;;;;;;;;;;5027877;28;19983;-52
2024/02/16 10:09:46;;;;;;;;;;;;;;;;;;5028177;28;19905;-42
2024/02/16 10:12:12;;;;;;;;;;;;;;;;;;5027893;28;19901;-43
2024/02/16 10:14:40;;;;;;;;;;;;;;;;;;5027791;28;20109;-55
2024/02/16 10:17:09;;;;;;;;;;;;;;;;;;5027828;28;20212;-55
2024/02/16 10:19:41;;;;;;;;;;;;;;;;;;5028129;28;19913;-54
2024/02/16 10:22:07;;;;;;;;;;;;;;;;;;5027711;28;20102;-50
2024/02/16 10:24:34;;;;;;;;;;;;;;;;;;5028107;28;19916;-45
2024/02/16 10:27:00;;;;;;;;;;;;;;;;;;5027745;28;19905;-48
2024/02/16 10:29:26;;;;;;;;;;;;;;;;;;5027921;28;19905;-51
2024/02/16 10:31:52;;;;;;;;;;;;;;;;;;5027873;28;19906;-48
2024/02/16 10:34:19;;;;;;;;;;;;;;;;;;5027853;28;19951;-50
2024/02/16 10:36:46;;;;;;;;;;;;;;;;;;5027557;28;19909;-45
2024/02/16 10:39:13;;;;;;;;;;;;;;;;;;5027819;28;19909;-52
2024/02/16 10:41:40;;;;;;;;;;;;;;;;;;5027172;28;19916;-49
2024/02/16 10:44:06;;;;;;;;;;;;;;;;;;5027784;28;20185;-52
2024/02/16 10:46:32;;;;;;;;;;;;;;;;;;5027676;28;19949;-46
2024/02/16 10:48:58;;;;;;;;;;;;;;;;;;5027327;28;19906;-52
2024/02/16 10:51:24;;;;;;;;;;;;;;;;;;5027359;28;19905;-49
2024/02/16 10:53:50;;;;;;;;;;;;;;;;;;5027286;28;19912;-55
2024/02/16 10:56:17;;;;;;;;;;;;;;;;;;5027244;28;19909;-53
2024/02/16 10:58:43;;;;;;;;;;;;;;;;;;5027547;28;19928;-53
2024/02/16 11:01:12;;;;;;;;;;;;;;;;;;5027052;28;19905;-47
2024/02/16 11:03:38;;;;;;;;;;;;;;;;;;5027225;28;19917;-53
2024/02/16 11:06:04;;;;;;;;;;;;;;;;;;5027145;28;19972;-47
2024/02/16 11:08:30;;;;;;;;;;;;;;;;;;5027230;28;19912;-52
2024/02/16 11:10:57;;;;;;;;;;;;;;;;;;5027271;28;19905;-45
2024/02/16 11:13:25;;;;;;;;;;;;;;;;;;5026753;28;20189;-53
2024/02/16 11:15:51;;;;;;;;;;;;;;;;;;5026651;28;19969;-50
2024/02/16 11:18:17;;;;;;;;;;;;;;;;;;5017198;28;19905;-49
2024/02/16 11:20:43;;;;;;;;;;;;;;;;;;5026763;28;20102;-49
2024/02/16 11:23:10;;;;;;;;;;;;;;;;;;5026741;28;19906;-54
2024/02/16 11:25:36;;;;;;;;;;;;;;;;;;5026689;28;20221;-52
2024/02/16 11:28:03;;;;;;;;;;;;;;;;;;5026708;28;19944;-45
2024/02/16 11:30:29;;;;;;;;;;;;;;;;;;5026995;28;20001;-51
2024/02/16 11:32:55;;;;;;;;;;;;;;;;;;5026441;28;19905;-52
2024/02/16 11:35:21;;;;;;;;;;;;;;;;;;5026437;28;19910;-57
2024/02/16 11:37:47;;;;;;;;;;;;;;;;;;5026419;28;19906;-44
2024/02/16 11:40:14;;;;;;;;;;;;;;;;;;5026311;28;19920;-49
2024/02/16 11:42:43;;;;;;;;;;;;;;;;;;5026281;28;19992;-51
2024/02/16 11:45:09;;;;;;;;;;;;;;;;;;5026251;28;19912;-49
2024/02/16 11:47:36;;;;;;;;;;;;;;;;;;5026031;28;20028;-50
2024/02/16 11:50:02;;;;;;;;;;;;;;;;;;5026299;28;19909;-54
2024/02/16 11:52:28;;;;;;;;;;;;;;;;;;5026023;28;19901;-53
2024/02/16 11:54:55;;;;;;;;;;;;;;;;;;5025993;28;20048;-57
2024/02/16 11:57:21;;;;;;;;;;;;;;;;;;5025972;28;19908;-53
2024/02/16 11:59:48;;;;;;;;;;;;;;;;;;5026006;28;19912;-50
2024/02/16 12:02:14;;;;;;;;;;;;;;;;;;5025767;28;19933;-52
2024/02/16 12:04:40;;;;;;;;;;;;;;;;;;5025688;28;20227;-48
2024/02/16 12:07:06;;;;;;;;;;;;;;;;;;5024881;28;19902;-47
2024/02/16 12:09:34;;;;;;;;;;;;;;;;;;5024814;28;19951;-51
2024/02/16 12:12:01;;;;;;;;;;;;;;;;;;5024326;28;19928;-50
2024/02/16 12:14:27;;;;;;;;;;;;;;;;;;5024942;28;19913;-48
2024/02/16 12:16:54;;;;;;;;;;;;;;;;;;5025475;28;20217;-47
2024/02/16 12:19:21;;;;;;;;;;;;;;;;;;5025946;28;19913;-50
2024/02/16 12:21:47;;;;;;;;;;;;;;;;;;5025073;28;19944;-50
2024/02/16 12:24:14;;;;;;;;;;;;;;;;;;5021517;28;19940;-48
2024/02/16 12:26:41;;;;;;;;;;;;;;;;;;5015470;28;20149;-44
2024/02/16 12:29:08;;;;;;;;;;;;;;;;;;5000472;28;19905;-46
2024/02/16 12:31:37;;;;;;;;;;;;;;;;;;5019146;28;19909;-50
2024/02/16 12:34:05;;;;;;;;;;;;;;;;;;5019883;28;20190;-46
2024/02/16 12:36:31;;;;;;;;;;;;;;;;;;5016329;28;19997;-49
2024/02/16 12:38:57;;;;;;;;;;;;;;;;;;5015713;28;19906;-50
2024/02/16 12:41:23;;;;;;;;;;;;;;;;;;5004375;28;20098;-50
2024/02/16 12:43:50;;;;;;;;;;;;;;;;;;5015933;28;19943;-50
2024/02/16 12:46:16;;;;;;;;;;;;;;;;;;5025113;28;19947;-54
2024/02/16 12:48:43;;;;;;;;;;;;;;;;;;5025885;28;20066;-46
2024/02/16 12:51:11;;;;;;;;;;;;;;;;;;5025029;28;19906;-56
2024/02/16 12:53:40;;;;;;;;;;;;;;;;;;5024534;28;19906;-53
2024/02/16 12:56:07;;;;;;;;;;;;;;;;;;5023147;28;20019;-49
2024/02/16 12:58:33;;;;;;;;;;;;;;;;;;5021751;28;19972;-57
2024/02/16 13:00:59;;;;;;;;;;;;;;;;;;5021746;28;20306;-49
2024/02/16 13:03:25;;;;;;;;;;;;;;;;;;5022335;28;19941;-51
2024/02/16 13:05:51;;;;;;;;;;;;;;;;;;5022531;28;20129;-48
2024/02/16 13:08:17;;;;;;;;;;;;;;;;;;5022707;28;19909;-55
2024/02/16 13:10:44;;;;;;;;;;;;;;;;;;5023467;28;19920;-49
2024/02/16 13:13:10;;;;;;;;;;;;;;;;;;5024023;28;20196;-48
2024/02/16 13:15:36;;;;;;;;;;;;;;;;;;5024098;28;19909;-52
2024/02/16 13:18:02;;;;;;;;;;;;;;;;;;5024599;28;19905;-53
2024/02/16 13:20:29;;;;;;;;;;;;;;;;;;5024725;28;19979;-52
2024/02/16 13:22:55;;;;;;;;;;;;;;;;;;5025066;28;19909;-53
2024/02/16 13:25:21;;;;;;;;;;;;;;;;;;5024383;28;19905;-49
2024/02/16 13:27:47;;;;;;;;;;;;;;;;;;5024594;28;19912;-48
2024/02/16 13:30:14;;;;;;;;;;;;;;;;;;5024628;28;19912;-48
2024/02/16 13:32:40;;;;;;;;;;;;;;;;;;5024868;28;19906;-50
2024/02/16 13:35:06;;;;;;;;;;;;;;;;;;5024432;28;20206;-51
2024/02/16 13:37:32;;;;;;;;;;;;;;;;;;5024627;28;19901;-49
2024/02/16 13:39:58;;;;;;;;;;;;;;;;;;5024836;28;20213;-48
2024/02/16 13:42:26;;;;;;;;;;;;;;;;;;5024366;28;20188;-50
2024/02/16 13:44:52;;;;;;;;;;;;;;;;;;5024482;28;20105;-48
2024/02/16 13:47:19;;;;;;;;;;;;;;;;;;5023868;28;19952;-46
2024/02/16 13:49:47;;;;;;;;;;;;;;;;;;5024542;28;19917;-51
2024/02/16 13:52:13;;;;;;;;;;;;;;;;;;5024162;28;19908;-49
2024/02/16 13:54:39;;;;;;;;;;;;;;;;;;5024080;28;19920;-50
2024/02/16 13:57:05;;;;;;;;;;;;;;;;;;5024529;28;19936;-51
2024/02/16 13:59:32;;;;;;;;;;;;;;;;;;5025094;28;19972;-50
2024/02/16 14:01:59;;;;;;;;;;;;;;;;;;5024308;28;19972;-50
2024/02/16 14:04:26;;;;;;;;;;;;;;;;;;5024114;28;19914;-55
2024/02/16 14:06:52;;;;;;;;;;;;;;;;;;5023627;28;19960;-59
2024/02/16 14:09:19;;;;;;;;;;;;;;;;;;5024095;28;19905;-48
2024/02/16 14:11:45;;;;;;;;;;;;;;;;;;5023688;28;19948;-52
2024/02/16 14:14:11;;;;;;;;;;;;;;;;;;5024635;28;19947;-47
2024/02/16 14:16:38;;;;;;;;;;;;;;;;;;5024298;28;19905;-52
2024/02/16 14:19:04;;;;;;;;;;;;;;;;;;5024197;28;20209;-48
2024/02/16 14:21:30;;;;;;;;;;;;;;;;;;5024117;28;20264;-50
2024/02/16 14:23:56;;;;;;;;;;;;;;;;;;5024508;28;19905;-49
2024/02/16 14:26:23;;;;;;;;;;;;;;;;;;5023804;28;20008;-50
2024/02/16 14:28:49;;;;;;;;;;;;;;;;;;5024257;28;19906;-45
2024/02/16 14:31:16;;;;;;;;;;;;;;;;;;5024105;28;19905;-60
2024/02/16 14:33:43;;;;;;;;;;;;;;;;;;5024158;28;20086;-50
2024/02/16 14:36:09;;;;;;;;;;;;;;;;;;5023906;28;19945;-53
2024/02/16 14:38:37;;;;;;;;;;;;;;;;;;5023466;28;20073;-51
2024/02/16 14:41:03;;;;;;;;;;;;;;;;;;5023623;28;19913;-44
2024/02/16 14:43:30;;;;;;;;;;;;;;;;;;5022114;28;19913;-52
2024/02/16 14:45:56;;;;;;;;;;;;;;;;;;5023269;28;19910;-50
2024/02/16 14:48:22;;;;;;;;;;;;;;;;;;5024034;28;20185;-48
2024/02/16 14:50:49;;;;;;;;;;;;;;;;;;5027386;28;20251;-55
2024/02/16 14:53:16;;;;;;;;;;;;;;;;;;5027474;28;19905;-49
2024/02/16 14:55:43;;;;;;;;;;;;;;;;;;5027245;28;19943;-52
2024/02/16 14:58:09;;;;;;;;;;;;;;;;;;5022888;28;20122;-51
2024/02/16 15:00:36;;;;;;;;;;;;;;;;;;5017743;28;19916;-49
2024/02/16 15:03:03;;;;;;;;;;;;;;;;;;5017517;28;19933;-45
2024/02/16 15:05:29;;;;;;;;;;;;;;;;;;5015737;28;19928;-44
2024/02/16 15:07:55;;;;;;;;;;;;;;;;;;5017316;28;19905;-46
2024/02/16 15:10:21;;;;;;;;;;;;;;;;;;5017288;28;20199;-44
2024/02/16 15:12:48;;;;;;;;;;;;;;;;;;5015759;28;19912;-44
2024/02/16 15:15:14;;;;;;;;;;;;;;;;;;5017479;28;19915;-48
2024/02/16 15:17:40;;;;;;;;;;;;;;;;;;5017050;28;20059;-47
2024/02/16 15:20:06;;;;;;;;;;;;;;;;;;5015677;28;20282;-43
2024/02/16 15:22:32;;;;;;;;;;;;;;;;;;5017382;28;19933;-43
2024/02/16 15:24:58;;;;;;;;;;;;;;;;;;5016660;28;19944;-45
2024/02/16 15:27:25;;;;;;;;;;;;;;;;;;5015697;28;19933;-46
2024/02/16 15:29:51;;;;;;;;;;;;;;;;;;5017486;28;19911;-47
2024/02/16 15:32:17;;;;;;;;;;;;;;;;;;5016309;28;19902;-53
2024/02/16 15:34:47;;;;;;;;;;;;;;;;;;5015667;28;19909;-52
2024/02/16 15:37:14;;;;;;;;;;;;;;;;;;5017008;28;19933;-43
2024/02/16 15:39:40;;;;;;;;;;;;;;;;;;5016562;28;20103;-45
2024/02/16 15:42:11;;;;;;;;;;;;;;;;;;5015177;28;20224;-45
2024/02/16 15:44:37;;;;;;;;;;;;;;;;;;5017025;28;19912;-48
2024/02/16 15:47:03;;;;;;;;;;;;;;;;;;5016726;28;20104;-45
2024/02/16 15:49:30;;;;;;;;;;;;;;;;;;5014874;28;19960;-49
2024/02/16 15:51:56;;;;;;;;;;;;;;;;;;5016821;28;19933;-54
2024/02/16 15:54:25;;;;;;;;;;;;;;;;;;5016824;28;19910;-46
2024/02/16 15:56:52;;;;;;;;;;;;;;;;;;5015192;28;19906;-47
2024/02/16 15:59:19;;;;;;;;;;;;;;;;;;5016486;28;19906;-51
2024/02/16 16:01:46;;;;;;;;;;;;;;;;;;5015807;28;19906;-44
2024/02/16 16:04:13;;;;;;;;;;;;;;;;;;5014857;28;19914;-49
2024/02/16 16:06:39;;;;;;;;;;;;;;;;;;5015863;28;19906;-44
2024/02/16 16:09:08;;;;;;;;;;;;;;;;;;5021061;28;19984;-44
2024/02/16 16:11:34;;;;;;;;;;;;;;;;;;5014983;28;19912;-52
2024/02/16 16:14:01;;;;;;;;;;;;;;;;;;5015880;28;19905;-44
2024/02/16 16:16:27;;;;;;;;;;;;;;;;;;5016699;28;19988;-47
2024/02/16 16:18:55;;;;;;;;;;;;;;;;;;5014782;28;19912;-49
2024/02/16 16:21:21;;;;;;;;;;;;;;;;;;5015314;28;19905;-49
2024/02/16 16:23:47;;;;;;;;;;;;;;;;;;5016895;28;19913;-45
2024/02/16 16:26:13;;;;;;;;;;;;;;;;;;5014895;28;20190;-49
2024/02/16 16:28:40;;;;;;;;;;;;;;;;;;5015619;28;19909;-49
2024/02/16 16:31:06;;;;;;;;;;;;;;;;;;5016202;28;20150;-47
2024/02/16 16:33:32;;;;;;;;;;;;;;;;;;5025006;28;19905;-45
2024/02/16 16:35:59;;;;;;;;;;;;;;;;;;5017786;28;20026;-46
2024/02/16 16:38:25;;;;;;;;;;;;;;;;;;5014577;28;19921;-45
2024/02/16 16:40:52;;;;;;;21.45;13.98;;;;;;;;;;5015161;28;19996;-45